Candido Mota, Brazil
Current Conditions -  °F | °C
As of 7:00 PM on Tuesday 21 Oct 2014 (Local Time) from SBLO Reporting Station
Clear Clear  
Wind Chill: 81°   Ceiling: Unl
Heat Index: 81°   Visibility: 6mi
Dew Point: 54°   Wind: 9mph
Humidity: 39%   Direction: 100°E
Pressure: 30.03"   Gusts: NA
Location:  22.75°S, 50.39°W
Report Text: SBLO 212100Z 10008KT CAVOK 27/12 Q1017
Loading
Personal Weather Stations






























Interactive Weather Map
Tropical Storm Tracking
New forecast layout! Learn more

10-Day Weather Forecast

Advertisements
Track Severe Weather on mobile